Time,TemperatureF,DewpointF,PressureIn,WindDirection,WindDirectionDegrees,WindSpeedMPH,WindSpeedGustMPH,Humidity,HourlyPrecipIn,Conditions,Clouds,dailyrainin,SoftwareType,DateUTC
2017-05-22 00:10:00,67.0,57.0,29.98,WSW,241,0.0,5.0,70,0.00,,,0.00,weatherlink.com 1.10,2017-05-22 04:10:00,
2017-05-22 00:25:00,66.4,57.0,29.99,NNW,332,1.0,9.0,71,0.00,,,0.00,weatherlink.com 1.10,2017-05-22 04:25:00,
2017-05-22 00:40:00,65.8,57.0,29.98,NNW,337,0.0,8.0,72,0.00,,,0.00,weatherlink.com 1.10,2017-05-22 04:40:00,
2017-05-22 00:55:00,64.9,56.0,29.98,NW,317,2.0,7.0,74,0.00,,,0.00,weatherlink.com 1.10,2017-05-22 04:55:00,
2017-05-22 01:10:00,64.0,56.0,29.98,NW,324,1.0,6.0,76,0.00,,,0.00,weatherlink.com 1.10,2017-05-22 05:10:00,
2017-05-22 01:25:00,63.2,56.0,29.99,NW,304,1.0,8.0,76,0.00,,,0.00,weatherlink.com 1.10,2017-05-22 05:25:00,
2017-05-22 01:41:00,62.6,56.0,30.00,South,184,0.0,2.0,78,0.00,,,0.00,weatherlink.com 1.10,2017-05-22 05:41:00,
2017-05-22 01:56:00,61.9,55.0,30.00,South,186,1.0,4.0,79,0.00,,,0.00,weatherlink.com 1.10,2017-05-22 05:56:00,
2017-05-22 02:11:00,61.3,54.0,30.00,WSW,246,1.0,3.0,78,0.00,,,0.00,weatherlink.com 1.10,2017-05-22 06:11:00,
2017-05-22 02:26:00,60.9,54.0,30.01,SW,236,0.0,3.0,79,0.00,,,0.00,weatherlink.com 1.10,2017-05-22 06:26:00,
2017-05-22 02:41:00,60.3,54.0,30.01,NNW,334,0.0,3.0,79,0.00,,,0.00,weatherlink.com 1.10,2017-05-22 06:41:00,
2017-05-22 02:56:00,60.0,54.0,30.02,WSW,242,1.0,4.0,80,0.00,,,0.00,weatherlink.com 1.10,2017-05-22 06:56:00,
2017-05-22 03:11:00,59.7,52.0,30.02,North,11,3.0,10.0,77,0.00,,,0.00,weatherlink.com 1.10,2017-05-22 07:11:00,
2017-05-22 03:26:00,59.3,52.0,30.02,SSE,168,1.0,6.0,76,0.00,,,0.00,weatherlink.com 1.10,2017-05-22 07:26:00,
2017-05-22 03:41:00,58.7,51.0,30.03,WSW,245,1.0,11.0,75,0.00,,,0.00,weatherlink.com 1.10,2017-05-22 07:41:00,
2017-05-22 03:56:00,58.2,50.0,30.03,WNW,295,1.0,8.0,75,0.00,,,0.00,weatherlink.com 1.10,2017-05-22 07:56:00,
2017-05-22 04:11:00,57.7,49.0,30.04,SW,224,0.0,8.0,74,0.00,,,0.00,weatherlink.com 1.10,2017-05-22 08:11:00,
2017-05-22 04:26:00,57.1,49.0,30.04,WSW,243,0.0,7.0,73,0.00,,,0.00,weatherlink.com 1.10,2017-05-22 08:26:00,
2017-05-22 04:41:00,56.6,48.0,30.05,SSE,153,1.0,2.0,72,0.00,,,0.00,weatherlink.com 1.10,2017-05-22 08:41:00,
2017-05-22 04:56:00,56.0,46.0,30.05,WSW,237,2.0,7.0,70,0.00,,,0.00,weatherlink.com 1.10,2017-05-22 08:56:00,
2017-05-22 05:11:00,55.4,46.0,30.05,WSW,250,0.0,1.0,72,0.00,,,0.00,weatherlink.com 1.10,2017-05-22 09:11:00,
2017-05-22 05:26:00,54.9,47.0,30.05,WSW,250,0.0,2.0,74,0.00,,,0.00,weatherlink.com 1.10,2017-05-22 09:26:00,
2017-05-22 05:41:00,54.2,46.0,30.05,WSW,250,0.0,0.0,75,0.00,,,0.00,weatherlink.com 1.10,2017-05-22 09:41:00,
2017-05-22 05:56:00,53.4,46.0,30.05,WSW,250,0.0,0.0,77,0.00,,,0.00,weatherlink.com 1.10,2017-05-22 09:56:00,
2017-05-22 06:11:00,52.8,46.0,30.05,WSW,250,0.0,0.0,78,0.00,,,0.00,weatherlink.com 1.10,2017-05-22 10:11:00,
2017-05-22 06:26:00,52.2,46.0,30.05,WSW,250,0.0,0.0,80,0.00,,,0.00,weatherlink.com 1.10,2017-05-22 10:26:00,
2017-05-22 06:41:00,51.9,47.0,30.06,WSW,250,0.0,0.0,82,0.00,,,0.00,weatherlink.com 1.10,2017-05-22 10:41:00,
2017-05-22 06:56:00,52.6,47.0,30.07,WSW,250,0.0,0.0,82,0.00,,,0.00,weatherlink.com 1.10,2017-05-22 10:56:00,
2017-05-22 07:12:00,53.0,47.0,30.07,WSW,250,0.0,0.0,80,0.00,,,0.00,weatherlink.com 1.10,2017-05-22 11:12:00,
2017-05-22 07:27:00,54.8,48.0,30.06,WSW,250,0.0,0.0,77,0.00,,,0.00,weatherlink.com 1.10,2017-05-22 11:27:00,
2017-05-22 07:41:00,56.6,49.0,30.07,WSW,250,0.0,0.0,75,0.00,,,0.00,weatherlink.com 1.10,2017-05-22 11:41:00,
2017-05-22 07:56:00,57.4,49.0,30.07,WSW,250,0.0,1.0,73,0.00,,,0.00,weatherlink.com 1.10,2017-05-22 11:56:00,
2017-05-22 08:11:00,57.6,46.0,30.08,SW,222,2.0,4.0,66,0.00,,,0.00,weatherlink.com 1.10,2017-05-22 12:11:00,
2017-05-22 08:27:00,58.0,46.0,30.08,NNW,344,1.0,2.0,64,0.00,,,0.00,weatherlink.com 1.10,2017-05-22 12:27:00,
2017-05-22 08:42:00,59.0,46.0,30.09,NNW,337,1.0,4.0,63,0.00,,,0.00,weatherlink.com 1.10,2017-05-22 12:42:00,
2017-05-22 08:57:00,59.9,47.0,30.10,NW,311,1.0,6.0,63,0.00,,,0.00,weatherlink.com 1.10,2017-05-22 12:57:00,
2017-05-22 09:12:00,60.0,46.0,30.10,WNW,302,1.0,5.0,60,0.00,,,0.00,weatherlink.com 1.10,2017-05-22 13:12:00,
2017-05-22 09:27:00,60.1,46.0,30.10,West,271,4.0,7.0,59,0.00,,,0.00,weatherlink.com 1.10,2017-05-22 13:27:00,
2017-05-22 09:42:00,60.2,46.0,30.11,SSW,192,4.0,9.0,59,0.00,,,0.00,weatherlink.com 1.10,2017-05-22 13:42:00,
2017-05-22 09:57:00,60.4,45.0,30.11,NNW,327,2.0,10.0,57,0.00,,,0.00,weatherlink.com 1.10,2017-05-22 13:57:00,
2017-05-22 10:12:00,61.2,45.0,30.11,NW,308,3.0,5.0,55,0.00,,,0.00,weatherlink.com 1.10,2017-05-22 14:12:00,
2017-05-22 10:27:00,62.0,45.0,30.10,NW,307,1.0,5.0,54,0.00,,,0.00,weatherlink.com 1.10,2017-05-22 14:27:00,
2017-05-22 10:42:00,63.2,48.0,30.09,East,87,0.0,5.0,57,0.00,,,0.00,weatherlink.com 1.10,2017-05-22 14:42:00,
2017-05-22 10:57:00,63.5,47.0,30.09,NNE,19,1.0,8.0,55,0.00,,,0.00,weatherlink.com 1.10,2017-05-22 14:57:00,
2017-05-22 11:12:00,63.7,45.0,30.09,WNW,285,1.0,6.0,51,0.00,,,0.00,weatherlink.com 1.10,2017-05-22 15:12:00,
2017-05-22 11:27:00,63.3,47.0,30.09,West,273,1.0,6.0,55,0.00,,,0.00,weatherlink.com 1.10,2017-05-22 15:27:00,
2017-05-22 11:42:00,64.5,47.0,30.09,SW,236,1.0,3.0,53,0.00,,,0.00,weatherlink.com 1.10,2017-05-22 15:42:00,